createdAt,value
2022-11-02T00:03:12.578Z,10.90
2022-11-02T00:08:15.088Z,10.90
2022-11-02T00:13:17.540Z,10.50
2022-11-02T00:18:20.284Z,10.50
2022-11-02T00:23:23.079Z,10.50
2022-11-02T00:28:25.602Z,10.40
2022-11-02T00:33:28.167Z,10.50
2022-11-02T00:38:32.223Z,10.60
2022-11-02T00:43:34.782Z,10.60
2022-11-02T00:48:37.375Z,10.90
2022-11-02T00:53:40.175Z,10.90
2022-11-02T00:58:42.674Z,10.90
2022-11-02T01:03:46.795Z,10.80
2022-11-02T01:08:49.433Z,10.80
2022-11-02T01:13:54.541Z,10.90
2022-11-02T01:18:57.339Z,10.80
2022-11-02T01:23:59.932Z,10.70
2022-11-02T01:29:02.586Z,10.50
2022-11-02T01:34:05.056Z,10.60
2022-11-02T01:39:07.512Z,10.60
2022-11-02T01:44:44.304Z,10.60
2022-11-02T01:49:49.293Z,10.60
2022-11-02T01:55:01.265Z,10.50
2022-11-02T02:00:12.976Z,10.40
2022-11-02T02:05:19.558Z,10.40
2022-11-02T02:10:21.987Z,10.10
2022-11-02T02:15:31.404Z,9.80
2022-11-02T02:21:01.676Z,9.70
2022-11-02T02:26:46.548Z,9.50
2022-11-02T02:32:10.861Z,9.40
2022-11-02T02:37:41.279Z,9.50
2022-11-02T02:43:04.044Z,9.40
2022-11-02T02:48:15.794Z,9.40
2022-11-02T02:53:24.526Z,9.00
2022-11-02T02:58:31.619Z,8.80
2022-11-02T03:03:35.062Z,8.90
2022-11-02T03:08:40.024Z,8.80
2022-11-02T03:14:10.199Z,8.80
2022-11-02T03:19:24.721Z,8.60
2022-11-02T03:24:35.875Z,8.60
2022-11-02T03:29:51.789Z,9.10
2022-11-02T03:35:02.599Z,9.30
2022-11-02T03:40:13.603Z,9.60
2022-11-02T03:45:24.769Z,9.80
2022-11-02T03:50:28.654Z,9.90
2022-11-02T03:55:36.299Z,10.00
2022-11-02T04:00:48.617Z,10.00
2022-11-02T04:05:51.847Z,10.10
2022-11-02T04:11:21.523Z,10.10
2022-11-02T04:16:28.162Z,10.20
2022-11-02T04:21:32.376Z,10.20
2022-11-02T04:26:37.161Z,10.20
2022-11-02T04:31:40.021Z,10.10
2022-11-02T04:36:44.572Z,10.20
2022-11-02T04:41:47.616Z,10.30
2022-11-02T04:46:56.322Z,10.20
2022-11-02T04:52:02.348Z,10.20
2022-11-02T04:57:06.880Z,10.20
2022-11-02T05:02:09.835Z,10.20
2022-11-02T05:07:13.966Z,10.10
2022-11-02T05:12:16.665Z,10.10
2022-11-02T05:17:19.232Z,10.00
2022-11-02T05:22:21.902Z,10.10
2022-11-02T05:27:24.409Z,10.70
2022-11-02T05:32:28.317Z,10.20
2022-11-02T05:37:31.126Z,12.60
2022-11-02T05:42:34.937Z,10.40
2022-11-02T05:47:38.374Z,10.30
2022-11-02T05:52:40.938Z,10.50
2022-11-02T05:57:43.438Z,11.30
2022-11-02T06:02:46.010Z,10.90
2022-11-02T06:07:48.400Z,10.60
2022-11-02T06:12:58.393Z,10.70
2022-11-02T06:18:00.898Z,11.50
2022-11-02T06:23:03.820Z,11.30
2022-11-02T06:28:06.554Z,11.30
2022-11-02T06:33:09.672Z,11.40
2022-11-02T06:38:12.838Z,11.10
2022-11-02T06:43:17.293Z,10.00
2022-11-02T06:48:20.259Z,10.00
2022-11-02T06:53:22.866Z,9.60
2022-11-02T06:58:26.413Z,9.50
2022-11-02T07:03:30.075Z,9.40
2022-11-02T07:08:32.672Z,9.50
2022-11-02T07:13:35.900Z,9.70
2022-11-02T07:18:38.457Z,9.60
2022-11-02T07:23:41.299Z,10.00
2022-11-02T07:28:47.147Z,9.70
2022-11-02T07:33:49.707Z,10.10
2022-11-02T07:44:33.916Z,13.10
2022-11-02T07:49:36.254Z,11.50
2022-11-02T07:54:44.333Z,11.60
2022-11-02T07:59:47.200Z,11.10
2022-11-02T08:04:49.790Z,13.40
2022-11-02T08:09:52.189Z,14.90
2022-11-02T08:14:54.730Z,14.40
2022-11-02T08:19:57.264Z,14.30
2022-11-02T08:25:00.886Z,14.50
2022-11-02T08:30:03.606Z,14.30
2022-11-02T08:35:06.524Z,16.30
2022-11-02T08:40:10.432Z,15.80
2022-11-02T08:45:12.914Z,14.30
2022-11-02T08:50:15.403Z,15.00
2022-11-02T08:55:17.899Z,16.00
2022-11-02T09:00:22.957Z,15.80
2022-11-02T09:05:25.466Z,17.00
2022-11-02T09:10:29.757Z,16.70
2022-11-02T09:20:38.539Z,16.70
2022-11-02T09:25:40.962Z,15.60
2022-11-02T09:30:43.814Z,17.50
2022-11-02T09:35:48.452Z,17.70
2022-11-02T09:41:12.475Z,17.20
2022-11-02T09:46:46.891Z,18.00
2022-11-02T09:51:50.502Z,18.30
2022-11-02T09:56:57.915Z,16.50
2022-11-02T10:02:22.426Z,16.90
2022-11-02T10:07:49.245Z,17.10
2022-11-02T10:13:22.657Z,17.80
2022-11-02T10:18:27.890Z,16.50
2022-11-02T10:23:52.460Z,16.40
2022-11-02T10:29:05.806Z,17.40
2022-11-02T10:34:20.566Z,17.20
2022-11-02T10:39:46.972Z,17.30
2022-11-02T10:45:01.663Z,18.30
2022-11-02T10:50:14.296Z,17.10
2022-11-02T10:55:19.930Z,17.70
2022-11-02T11:00:23.669Z,18.20
2022-11-02T11:05:26.200Z,17.50
2022-11-02T11:10:31.943Z,17.40
2022-11-02T11:15:50.172Z,17.90
2022-11-02T11:20:55.840Z,17.10
2022-11-02T11:26:09.765Z,17.40
2022-11-02T11:31:17.652Z,18.00
2022-11-02T11:36:28.330Z,18.60
2022-11-02T11:41:33.117Z,17.40
2022-11-02T11:46:44.067Z,17.90
2022-11-02T11:51:52.484Z,18.40
2022-11-02T11:57:00.358Z,18.40
2022-11-02T12:02:03.925Z,18.10
2022-11-02T12:07:15.696Z,18.10
2022-11-02T12:12:42.160Z,18.80
2022-11-02T12:17:54.771Z,18.30
2022-11-02T12:23:33.506Z,18.80
2022-11-02T12:28:57.647Z,17.80
2022-11-02T12:34:06.052Z,18.40
2022-11-02T12:39:13.288Z,18.50
2022-11-02T12:44:21.755Z,18.60
2022-11-02T12:49:48.115Z,18.70
2022-11-02T12:54:55.557Z,18.90
2022-11-02T13:00:05.764Z,18.70
2022-11-02T13:05:23.758Z,18.10
2022-11-02T13:10:31.225Z,18.70
2022-11-02T13:15:37.868Z,18.70
2022-11-02T13:20:58.052Z,18.20
2022-11-02T13:26:10.749Z,18.00
2022-11-02T13:31:37.316Z,18.30
2022-11-02T13:36:40.329Z,17.00
2022-11-02T13:42:07.563Z,16.40
2022-11-02T13:47:18.966Z,17.70
2022-11-02T13:52:38.897Z,17.50
2022-11-02T13:57:45.321Z,18.10
2022-11-02T14:02:48.221Z,17.70
2022-11-02T14:07:51.491Z,17.90
2022-11-02T14:12:54.023Z,16.00
2022-11-02T14:18:01.983Z,16.60
2022-11-02T14:23:14.618Z,17.40
2022-11-02T14:28:20.371Z,16.80
2022-11-02T14:33:42.529Z,16.30
2022-11-02T14:39:09.315Z,16.40
2022-11-02T14:44:38.940Z,16.70
2022-11-02T14:49:50.337Z,16.60
2022-11-02T14:54:54.798Z,15.60
2022-11-02T15:00:01.837Z,15.30
2022-11-02T15:05:07.548Z,15.50
2022-11-02T15:10:16.280Z,15.50
2022-11-02T15:15:36.447Z,16.10
2022-11-02T15:20:43.662Z,15.00
2022-11-02T15:25:52.166Z,14.30
2022-11-02T15:31:00.167Z,14.10
2022-11-02T15:36:04.262Z,14.00
2022-11-02T15:41:36.370Z,14.80
2022-11-02T15:47:05.339Z,12.90
2022-11-02T15:53:16.594Z,12.60
2022-11-02T15:58:21.118Z,12.20
2022-11-02T16:03:23.637Z,11.50
2022-11-02T16:08:34.014Z,11.40
2022-11-02T16:13:48.686Z,11.60
2022-11-02T16:18:58.911Z,11.80
2022-11-02T16:24:01.347Z,11.80
2022-11-02T16:29:08.854Z,11.80
2022-11-02T16:34:32.208Z,11.40
2022-11-02T16:39:37.657Z,11.20
2022-11-02T16:44:40.568Z,11.10
2022-11-02T16:49:52.166Z,11.00
2022-11-02T16:54:54.552Z,11.20
2022-11-02T17:00:00.052Z,11.20
2022-11-02T17:05:06.378Z,11.20
2022-11-02T17:10:25.545Z,11.40
2022-11-02T17:15:34.822Z,11.50
2022-11-02T17:20:38.965Z,12.30
2022-11-02T17:25:41.691Z,12.30
2022-11-02T17:30:45.820Z,11.80
2022-11-02T17:35:50.014Z,12.70
2022-11-02T17:40:53.588Z,13.40
2022-11-02T17:51:00.290Z,15.60
2022-11-02T17:56:02.780Z,17.40
2022-11-02T18:01:05.805Z,17.40
2022-11-02T18:06:08.617Z,16.80
2022-11-02T18:11:11.073Z,15.60
2022-11-02T18:16:13.563Z,14.30
2022-11-02T18:21:15.954Z,14.40
2022-11-02T18:26:18.518Z,16.50
2022-11-02T18:31:20.890Z,14.90
2022-11-02T18:36:23.686Z,14.20
2022-11-02T18:41:32.168Z,12.30
2022-11-02T18:46:34.688Z,11.90
2022-11-02T18:51:37.309Z,11.50
2022-11-02T18:56:57.865Z,11.80
2022-11-02T19:02:00.535Z,13.00
2022-11-02T19:07:21.945Z,11.70
2022-11-02T19:12:28.105Z,11.40
2022-11-02T19:17:30.621Z,10.60
2022-11-02T19:22:33.330Z,10.30
2022-11-02T19:32:38.568Z,9.50
2022-11-02T19:37:41.192Z,9.50
2022-11-02T19:42:43.526Z,9.50
2022-11-02T19:47:45.977Z,9.50
2022-11-02T19:52:49.897Z,9.40
2022-11-02T19:57:54.892Z,11.60
2022-11-02T20:02:57.486Z,10.40
2022-11-02T20:08:00.052Z,10.80
2022-11-02T20:13:02.707Z,10.30
2022-11-02T20:18:18.814Z,9.90
2022-11-02T20:23:22.272Z,9.70
2022-11-02T20:28:24.682Z,9.20
2022-11-02T20:33:27.251Z,9.00
2022-11-02T20:38:30.553Z,8.80
2022-11-02T20:43:33.082Z,8.70
2022-11-02T20:53:38.658Z,7.80
2022-11-02T20:58:41.231Z,7.40
2022-11-02T21:03:43.836Z,7.30
2022-11-02T21:08:46.285Z,7.20
2022-11-02T21:13:51.533Z,7.10
2022-11-02T21:18:55.746Z,7.00
2022-11-02T21:23:58.491Z,7.00
2022-11-02T21:29:01.850Z,7.10
2022-11-02T21:34:04.905Z,7.20
2022-11-02T21:39:07.296Z,7.50
2022-11-02T21:44:11.653Z,7.50
2022-11-02T21:49:14.117Z,7.50
2022-11-02T21:54:16.558Z,7.40
2022-11-02T21:59:18.993Z,7.40
2022-11-02T22:04:29.101Z,7.30
2022-11-02T22:09:31.581Z,7.10
2022-11-02T22:14:34.095Z,7.00
2022-11-02T22:19:36.538Z,7.10
2022-11-02T22:24:44.395Z,7.10
2022-11-02T22:29:49.538Z,6.90
2022-11-02T22:34:52.071Z,6.60
2022-11-02T22:39:54.620Z,6.60
2022-11-02T22:44:58.620Z,6.30
2022-11-02T22:50:01.086Z,6.20
2022-11-02T22:55:04.212Z,6.00
2022-11-02T23:00:07.124Z,5.90
2022-11-02T23:05:10.053Z,5.70
2022-11-02T23:10:32.426Z,5.40
2022-11-02T23:15:34.933Z,5.40
2022-11-02T23:20:37.307Z,5.30
2022-11-02T23:31:02.135Z,5.10
2022-11-02T23:36:11.362Z,5.10
2022-11-02T23:41:13.841Z,5.00
2022-11-02T23:46:17.692Z,4.70
2022-11-02T23:51:38.482Z,4.60
2022-11-02T23:56:43.792Z,4.60
